Time;durP1;ratioP1;P1;durP2;ratioP2;P2;SDS_P1;SDS_P2;PMS_P1;PMS_P2;Temp;Humidity;BMP_temperature;BMP_pressure;BME280_temperature;BME280_humidity;BME280_pressure;Samples;Min_cycle;Max_cycle;Signal;HPM_P1;HPM_P2
2022/07/06 00:01:22;;;;;;;0.15;0.10;;;23.20;59.10;;;;;;5056639;28;20124;-28
2022/07/06 00:03:48;;;;;;;0.52;0.10;;;23.20;58.90;;;;;;5054221;28;20105;-32
2022/07/06 00:06:13;;;;;;;0.10;0.10;;;23.20;58.90;;;;;;5057731;28;20144;-28
2022/07/06 00:08:39;;;;;;;0.57;0.10;;;23.30;58.90;;;;;;5057573;28;20056;-27
2022/07/06 00:11:05;;;;;;;0.15;0.15;;;23.30;58.90;;;;;;5058338;28;20511;-29
2022/07/06 00:13:30;;;;;;;0.40;0.10;;;23.20;58.90;;;;;;5052322;28;20041;-29
2022/07/06 00:15:56;;;;;;;0.10;0.10;;;23.20;58.90;;;;;;5059744;28;20048;-25
2022/07/06 00:18:22;;;;;;;0.28;0.28;;;23.20;59.00;;;;;;5055845;28;20063;-27
2022/07/06 00:20:47;;;;;;;0.17;0.15;;;23.20;59.00;;;;;;5053335;28;20036;-26
2022/07/06 00:23:13;;;;;;;0.30;0.10;;;23.20;59.00;;;;;;5057850;28;20535;-25
2022/07/06 00:25:38;;;;;;;0.10;0.10;;;23.20;59.00;;;;;;5056130;28;20065;-30
2022/07/06 00:28:04;;;;;;;0.10;0.10;;;23.20;59.00;;;;;;5048382;28;20033;-31
2022/07/06 00:30:30;;;;;;;0.30;0.17;;;23.20;58.90;;;;;;5057065;28;20055;-29
2022/07/06 00:32:55;;;;;;;0.20;0.20;;;23.20;59.00;;;;;;5052604;28;20470;-27
2022/07/06 00:35:21;;;;;;;0.20;0.20;;;23.20;59.10;;;;;;5050216;28;20448;-27
2022/07/06 00:37:46;;;;;;;0.10;0.10;;;23.10;59.10;;;;;;5051662;28;20080;-27
2022/07/06 00:40:12;;;;;;;0.10;0.10;;;23.10;59.10;;;;;;5038407;28;20102;-29
2022/07/06 00:42:45;;;;;;;0.20;0.10;;;23.10;59.10;;;;;;5058713;28;20408;-30
2022/07/06 00:45:12;;;;;;;0.20;0.08;;;23.20;59.10;;;;;;5056677;28;20060;-26
2022/07/06 00:47:38;;;;;;;0.10;0.10;;;23.10;59.10;;;;;;5054409;28;20452;-26
2022/07/06 00:50:14;;;;;;;0.10;0.10;;;23.10;59.20;;;;;;5056508;28;20041;-25
2022/07/06 00:52:44;;;;;;;0.10;0.10;;;23.10;59.20;;;;;;5042478;28;20079;-30
2022/07/06 00:55:09;;;;;;;0.10;0.10;;;23.10;59.20;;;;;;5062893;28;20040;-28
2022/07/06 00:57:36;;;;;;;0.10;0.10;;;23.10;59.20;;;;;;5045276;28;20055;-29
2022/07/06 01:00:06;;;;;;;0.17;0.10;;;23.10;59.10;;;;;;5055930;28;20497;-25
2022/07/06 01:02:32;;;;;;;0.57;0.20;;;23.10;59.10;;;;;;5038173;28;20080;-27
2022/07/06 01:04:58;;;;;;;0.22;0.20;;;23.10;59.20;;;;;;5058591;28;20543;-25
2022/07/06 01:07:24;;;;;;;0.10;0.10;;;23.10;59.20;;;;;;5048966;28;20056;-27
2022/07/06 01:09:50;;;;;;;0.20;0.20;;;23.10;59.30;;;;;;5057670;28;20560;-28
2022/07/06 01:12:15;;;;;;;2.00;0.57;;;23.10;59.20;;;;;;5058089;28;20064;-28
2022/07/06 01:14:41;;;;;;;0.10;0.10;;;23.10;59.20;;;;;;5055390;28;20650;-28
2022/07/06 01:17:07;;;;;;;0.20;0.20;;;23.10;59.20;;;;;;5050393;28;20041;-26
2022/07/06 01:19:33;;;;;;;0.35;0.20;;;23.10;59.20;;;;;;5060434;28;20532;-29
2022/07/06 01:21:58;;;;;;;0.17;0.10;;;23.10;59.10;;;;;;5057270;28;20041;-24
2022/07/06 01:24:24;;;;;;;0.10;0.10;;;23.10;59.00;;;;;;5056217;28;20386;-26
2022/07/06 01:26:49;;;;;;;0.28;0.10;;;23.10;59.20;;;;;;5049636;28;20041;-26
2022/07/06 01:29:15;;;;;;;0.25;0.10;;;23.10;59.20;;;;;;5062325;28;20036;-26
2022/07/06 01:31:50;;;;;;;0.20;0.10;;;23.10;59.20;;;;;;5055306;28;20492;-26
2022/07/06 01:34:16;;;;;;;0.10;0.10;;;23.10;59.10;;;;;;5050659;28;20504;-28
2022/07/06 01:36:42;;;;;;;0.20;0.17;;;23.10;59.20;;;;;;5053664;28;20057;-24
2022/07/06 01:39:08;;;;;;;0.20;0.20;;;23.10;59.10;;;;;;5049764;28;20101;-27
2022/07/06 01:41:34;;;;;;;0.20;0.20;;;23.10;59.10;;;;;;5052649;28;20055;-26
2022/07/06 01:43:59;;;;;;;0.20;0.20;;;23.10;59.70;;;;;;5063303;28;20143;-27
2022/07/06 01:46:25;;;;;;;0.32;0.10;;;23.10;59.10;;;;;;5053973;28;20575;-27
2022/07/06 01:48:50;;;;;;;0.10;0.10;;;23.10;59.20;;;;;;5063184;28;20078;-28
2022/07/06 01:51:16;;;;;;;0.10;0.10;;;23.10;59.00;;;;;;5051857;28;20048;-29
2022/07/06 01:53:42;;;;;;;0.30;0.13;;;23.10;59.00;;;;;;5059513;28;20438;-28
2022/07/06 01:56:07;;;;;;;0.17;0.03;;;23.10;59.00;;;;;;5056158;28;20048;-30
2022/07/06 01:58:33;;;;;;;0.10;0.10;;;23.10;59.10;;;;;;5054024;28;20528;-30
2022/07/06 02:00:59;;;;;;;0.20;0.10;;;23.10;59.10;;;;;;5060056;28;20489;-23
2022/07/06 02:03:24;;;;;;;0.25;0.10;;;23.10;59.20;;;;;;5051620;28;20040;-32
2022/07/06 02:05:50;;;;;;;0.10;0.10;;;23.10;59.10;;;;;;5060409;28;20049;-28
2022/07/06 02:08:16;;;;;;;0.15;0.10;;;23.10;59.10;;;;;;5056444;28;20413;-30
2022/07/06 02:10:41;;;;;;;1.25;0.30;;;23.10;59.10;;;;;;5058414;28;20060;-28
2022/07/06 02:13:07;;;;;;;0.15;0.10;;;23.00;59.10;;;;;;5055392;28;20040;-27
2022/07/06 02:15:32;;;;;;;0.15;0.10;;;23.00;59.00;;;;;;5040689;28;20038;-30
2022/07/06 02:17:58;;;;;;;0.10;0.10;;;23.00;59.20;;;;;;5059242;28;20128;-30
2022/07/06 02:20:23;;;;;;;0.20;0.10;;;23.00;59.20;;;;;;5052910;28;20033;-27
2022/07/06 02:22:49;;;;;;;0.10;0.10;;;23.00;59.10;;;;;;5058004;28;20049;-27
2022/07/06 02:25:14;;;;;;;0.10;0.10;;;23.00;59.30;;;;;;5059166;28;20032;-26
2022/07/06 02:27:40;;;;;;;0.17;0.10;;;23.00;59.20;;;;;;5057673;28;20425;-28
2022/07/06 02:30:06;;;;;;;0.20;0.20;;;23.00;59.30;;;;;;5057782;28;20453;-25
2022/07/06 02:32:32;;;;;;;0.35;0.10;;;23.10;59.20;;;;;;5059117;28;20673;-30
2022/07/06 02:34:58;;;;;;;0.03;0.03;;;23.00;59.20;;;;;;5065101;28;20055;-29
2022/07/06 02:37:24;;;;;;;0.10;0.10;;;23.10;59.10;;;;;;5048996;28;20045;-31
2022/07/06 02:39:49;;;;;;;0.10;0.10;;;23.00;59.10;;;;;;5061500;28;20044;-25
2022/07/06 02:42:15;;;;;;;0.10;0.08;;;23.00;59.10;;;;;;5052817;28;20172;-26
2022/07/06 02:44:41;;;;;;;0.10;0.10;;;23.00;59.30;;;;;;5060852;28;20048;-28
2022/07/06 02:47:06;;;;;;;0.10;0.10;;;23.00;59.20;;;;;;5063186;28;20773;-26
2022/07/06 02:49:32;;;;;;;0.20;0.10;;;23.00;59.20;;;;;;5059258;28;20075;-28
2022/07/06 02:51:58;;;;;;;0.30;0.10;;;23.00;59.30;;;;;;5058646;28;20124;-27
2022/07/06 02:54:23;;;;;;;0.30;0.10;;;23.00;59.20;;;;;;5051106;28;20135;-30
2022/07/06 02:56:52;;;;;;;0.20;0.20;;;23.00;59.20;;;;;;5056892;28;20045;-28
2022/07/06 02:59:18;;;;;;;0.22;0.17;;;23.00;59.10;;;;;;5061764;28;20065;-30
2022/07/06 03:01:44;;;;;;;0.10;0.10;;;23.00;59.10;;;;;;5055902;28;20049;-27
2022/07/06 03:04:10;;;;;;;0.15;0.15;;;23.00;59.10;;;;;;5060279;28;20040;-28
2022/07/06 03:06:35;;;;;;;0.30;0.30;;;23.00;59.10;;;;;;5049060;28;20037;-30
2022/07/06 03:09:01;;;;;;;0.10;0.10;;;23.00;59.10;;;;;;5055683;28;20361;-31
2022/07/06 03:11:27;;;;;;;0.10;0.10;;;23.00;59.10;;;;;;5056014;28;20049;-29
2022/07/06 03:13:52;;;;;;;0.20;0.20;;;23.00;59.10;;;;;;5040914;28;20064;-27
2022/07/06 03:16:18;;;;;;;0.20;0.10;;;23.00;59.10;;;;;;5036734;28;20455;-29
2022/07/06 03:18:43;;;;;;;0.10;0.10;;;23.00;59.10;;;;;;5060629;28;20043;-28
2022/07/06 03:21:09;;;;;;;0.10;0.10;;;23.00;59.00;;;;;;5051454;28;21013;-27
2022/07/06 03:23:35;;;;;;;0.20;0.10;;;23.00;59.10;;;;;;5060498;28;20045;-28
2022/07/06 03:26:00;;;;;;;0.20;0.20;;;23.00;59.20;;;;;;5056575;28;20339;-28
2022/07/06 03:28:26;;;;;;;0.13;0.13;;;23.00;59.10;;;;;;5055338;28;20544;-28
2022/07/06 03:30:51;;;;;;;0.17;0.10;;;22.90;59.10;;;;;;5057707;28;20041;-29
2022/07/06 03:33:17;;;;;;;0.08;0.08;;;23.00;59.20;;;;;;5050704;28;20502;-26
2022/07/06 03:35:42;;;;;;;0.20;0.20;;;22.90;59.20;;;;;;5060478;28;20137;-25
2022/07/06 03:38:08;;;;;;;0.55;0.13;;;22.90;59.30;;;;;;5048142;28;20044;-30
2022/07/06 03:40:34;;;;;;;0.20;0.20;;;22.90;59.40;;;;;;5057273;28;20451;-28
2022/07/06 03:42:59;;;;;;;0.30;0.30;;;22.90;59.20;;;;;;5050891;28;20040;-28
2022/07/06 03:45:25;;;;;;;0.10;0.00;;;22.90;59.20;;;;;;5045227;28;20458;-30
2022/07/06 03:47:50;;;;;;;0.20;0.20;;;22.90;59.20;;;;;;5067343;28;20048;-29
2022/07/06 03:50:16;;;;;;;0.10;0.10;;;22.90;59.10;;;;;;5051669;28;20102;-28
2022/07/06 03:52:41;;;;;;;0.10;0.10;;;23.00;59.10;;;;;;5070575;28;20040;-29
2022/07/06 03:55:11;;;;;;;0.10;0.10;;;23.00;59.20;;;;;;5067725;28;20390;-24
2022/07/06 03:57:37;;;;;;;0.08;0.05;;;23.00;59.10;;;;;;5053155;28;20048;-25
2022/07/06 04:00:04;;;;;;;0.10;0.10;;;22.90;59.10;;;;;;5066483;28;20060;-27
2022/07/06 04:02:29;;;;;;;0.20;0.20;;;23.00;59.10;;;;;;5053197;28;20056;-30
2022/07/06 04:04:55;;;;;;;0.20;0.20;;;22.90;59.10;;;;;;5059008;28;20036;-26
2022/07/06 04:07:20;;;;;;;0.13;0.13;;;22.90;59.00;;;;;;5063234;28;20044;-28
2022/07/06 04:09:46;;;;;;;0.10;0.00;;;23.00;59.10;;;;;;5066553;28;20037;-25
2022/07/06 04:12:11;;;;;;;0.10;0.10;;;22.90;59.10;;;;;;5052079;28;20048;-28
2022/07/06 04:14:37;;;;;;;0.20;0.15;;;22.90;59.20;;;;;;5066829;28;20515;-28
2022/07/06 04:19:47;;;;;;;;;;;22.90;59.40;;;;;;5053385;28;20060;-31
2022/07/06 04:22:12;;;;;;;1.65;0.20;;;22.80;59.20;;;;;;5068238;28;19916;-25
2022/07/06 04:24:38;;;;;;;0.10;0.10;;;22.90;59.30;;;;;;5060416;28;20063;-31
2022/07/06 04:27:04;;;;;;;0.10;0.10;;;22.90;59.30;;;;;;5045980;28;20055;-27
2022/07/06 04:29:29;;;;;;;0.10;0.00;;;22.90;59.30;;;;;;5058010;28;20041;-30
2022/07/06 04:31:55;;;;;;;0.38;0.20;;;22.90;59.40;;;;;;5048491;28;20040;-28
2022/07/06 04:34:21;;;;;;;0.10;0.10;;;22.90;59.30;;;;;;5065623;28;20036;-33
2022/07/06 04:36:46;;;;;;;0.13;0.10;;;22.90;59.20;;;;;;5072177;28;20552;-26
2022/07/06 04:39:12;;;;;;;0.20;0.20;;;22.90;59.10;;;;;;5049344;28;20124;-28
2022/07/06 04:41:37;;;;;;;0.32;0.32;;;22.90;59.20;;;;;;5053791;28;20048;-28
2022/07/06 04:44:03;;;;;;;0.10;0.10;;;22.80;59.30;;;;;;5066194;28;20040;-26
2022/07/06 04:46:29;;;;;;;0.13;0.13;;;22.90;59.20;;;;;;5063699;28;20060;-28
2022/07/06 04:48:54;;;;;;;0.35;0.10;;;22.90;59.10;;;;;;5065820;28;20040;-27
2022/07/06 04:51:20;;;;;;;0.20;0.10;;;22.90;59.10;;;;;;5061512;28;20055;-30
2022/07/06 04:53:46;;;;;;;0.70;0.10;;;22.90;59.10;;;;;;5064449;28;20055;-28
2022/07/06 04:56:12;;;;;;;0.10;0.10;;;22.90;59.10;;;;;;5060301;28;20565;-30
2022/07/06 04:58:37;;;;;;;0.10;0.10;;;22.90;59.20;;;;;;5058027;28;20072;-32
2022/07/06 05:01:03;;;;;;;0.10;0.10;;;22.90;59.20;;;;;;5048787;28;20102;-29
2022/07/06 05:03:28;;;;;;;0.10;0.10;;;22.80;59.30;;;;;;5043122;28;20083;-30
2022/07/06 05:05:54;;;;;;;0.10;0.10;;;22.80;59.30;;;;;;5048223;28;20502;-30
2022/07/06 05:08:20;;;;;;;0.20;0.10;;;22.80;59.40;;;;;;5061156;28;20071;-30
2022/07/06 05:10:45;;;;;;;0.10;0.10;;;22.80;59.40;;;;;;5065314;28;20072;-29
2022/07/06 05:13:11;;;;;;;0.10;0.10;;;22.90;59.30;;;;;;5061675;28;20039;-25
2022/07/06 05:15:36;;;;;;;0.05;0.05;;;22.80;59.40;;;;;;5062962;28;20402;-31
2022/07/06 05:18:02;;;;;;;0.10;0.03;;;22.80;59.40;;;;;;5063807;28;20263;-28
2022/07/06 05:20:27;;;;;;;0.50;0.45;;;22.80;59.40;;;;;;5061570;28;20049;-27
2022/07/06 05:22:53;;;;;;;0.10;0.03;;;22.80;59.40;;;;;;5036643;28;20403;-27
2022/07/06 05:25:19;;;;;;;0.10;0.10;;;22.90;59.40;;;;;;5058750;28;20045;-26
2022/07/06 05:27:44;;;;;;;0.22;0.10;;;22.80;59.20;;;;;;4706499;28;9999831;-26
2022/07/06 05:30:10;;;;;;;0.10;0.10;;;22.80;59.30;;;;;;5051296;28;20079;-26
2022/07/06 05:32:36;;;;;;;0.10;0.10;;;22.80;59.30;;;;;;5049337;28;20585;-31
2022/07/06 05:35:01;;;;;;;0.30;0.20;;;22.80;59.40;;;;;;5049938;28;20040;-25
2022/07/06 05:37:27;;;;;;;0.10;0.10;;;22.70;59.60;;;;;;5051062;28;20045;-27
2022/07/06 05:39:52;;;;;;;0.10;0.10;;;22.70;59.70;;;;;;5055112;28;20135;-26
2022/07/06 05:42:18;;;;;;;0.20;0.10;;;22.70;59.80;;;;;;5048584;28;20060;-29
2022/07/06 05:44:43;;;;;;;0.17;0.10;;;22.70;59.80;;;;;;5050873;28;20045;-28
2022/07/06 05:50:12;;;;;;;0.10;0.10;;;22.80;59.70;;;;;;5047983;28;20433;-28
2022/07/06 05:52:38;;;;;;;0.10;0.00;;;22.80;59.70;;;;;;5040110;28;20050;-30
2022/07/06 05:55:04;;;;;;;0.10;0.10;;;22.80;59.60;;;;;;5037863;28;20042;-29
2022/07/06 05:57:30;;;;;;;0.20;0.10;;;22.90;59.50;;;;;;5042051;28;20176;-26
2022/07/06 05:59:55;;;;;;;0.20;0.20;;;22.90;59.50;;;;;;5055849;28;20131;-32
2022/07/06 06:02:21;;;;;;;0.20;0.20;;;22.90;59.40;;;;;;5043671;28;20042;-28
2022/07/06 06:04:46;;;;;;;0.20;0.10;;;22.80;59.30;;;;;;5051080;28;20045;-23
2022/07/06 06:07:12;;;;;;;0.20;0.20;;;22.80;59.70;;;;;;5043818;28;20729;-27
2022/07/06 06:09:37;;;;;;;0.15;0.10;;;22.60;59.60;;;;;;5056832;28;20060;-34
2022/07/06 06:12:03;;;;;;;0.10;0.10;;;22.50;59.70;;;;;;5045059;28;20056;-26
2022/07/06 06:14:29;;;;;;;0.10;0.10;;;22.60;59.90;;;;;;5039510;28;20059;-28
2022/07/06 06:16:54;;;;;;;0.10;0.10;;;22.60;60.20;;;;;;5040391;28;20179;-26
2022/07/06 06:19:20;;;;;;;0.10;0.10;;;22.60;60.30;;;;;;5031362;28;20040;-28
2022/07/06 06:21:45;;;;;;;0.40;0.20;;;22.70;60.10;;;;;;5046107;28;20044;-27
2022/07/06 06:24:11;;;;;;;0.10;0.10;;;22.70;60.30;;;;;;5052248;28;20429;-26
2022/07/06 06:26:37;;;;;;;0.20;0.10;;;22.70;60.30;;;;;;5043994;28;20436;-29
2022/07/06 06:29:02;;;;;;;0.17;0.10;;;22.70;60.20;;;;;;5049723;28;20114;-30
2022/07/06 06:31:28;;;;;;;0.20;0.20;;;22.70;60.20;;;;;;5047898;28;20064;-25
2022/07/06 06:33:54;;;;;;;0.20;0.20;;;22.70;60.30;;;;;;5034991;28;20037;-25
2022/07/06 06:36:19;;;;;;;0.17;0.15;;;22.70;60.30;;;;;;5040183;28;20099;-28
2022/07/06 06:38:45;;;;;;;0.20;0.20;;;22.70;60.00;;;;;;5058589;28;20039;-25
2022/07/06 06:41:10;;;;;;;0.35;0.20;;;22.70;60.20;;;;;;5060541;28;20048;-25
2022/07/06 06:43:36;;;;;;;0.20;0.20;;;22.70;59.90;;;;;;5058848;28;20066;-28
2022/07/06 06:46:01;;;;;;;1.27;0.20;;;22.80;60.00;;;;;;5056430;28;20551;-28
2022/07/06 06:48:27;;;;;;;0.10;0.10;;;22.80;59.90;;;;;;5065030;28;20097;-25
2022/07/06 06:50:53;;;;;;;0.30;0.20;;;22.80;60.00;;;;;;5054098;28;20052;-25
2022/07/06 06:53:18;;;;;;;0.28;0.22;;;22.80;59.90;;;;;;5058432;28;20043;-28
2022/07/06 06:55:44;;;;;;;0.28;0.10;;;22.80;60.00;;;;;;5054112;28;20078;-27
2022/07/06 06:58:09;;;;;;;0.43;0.17;;;22.80;60.10;;;;;;5052713;28;20049;-30
2022/07/06 07:00:35;;;;;;;0.17;0.17;;;22.80;59.90;;;;;;5041537;28;20052;-28
2022/07/06 07:03:00;;;;;;;0.20;0.20;;;22.70;60.00;;;;;;5042626;28;20040;-27
2022/07/06 07:05:26;;;;;;;0.25;0.10;;;22.80;59.80;;;;;;5040782;28;20127;-28
2022/07/06 07:07:52;;;;;;;0.20;0.13;;;22.80;59.80;;;;;;5039852;28;20106;-32
2022/07/06 07:10:17;;;;;;;0.10;0.10;;;22.80;59.80;;;;;;5041548;28;20063;-27
2022/07/06 07:12:46;;;;;;;0.20;0.20;;;22.80;59.70;;;;;;5040044;28;20130;-27
2022/07/06 07:15:12;;;;;;;0.30;0.10;;;22.80;59.70;;;;;;5040573;28;20038;-28
2022/07/06 07:17:38;;;;;;;0.32;0.20;;;22.70;59.70;;;;;;5040891;28;20053;-25
2022/07/06 07:20:04;;;;;;;0.10;0.10;;;22.70;59.70;;;;;;5060990;28;20036;-29
2022/07/06 07:22:30;;;;;;;0.20;0.10;;;22.70;59.60;;;;;;5063926;28;20079;-27
2022/07/06 07:24:55;;;;;;;0.10;0.10;;;22.70;59.50;;;;;;5050911;28;20071;-28
2022/07/06 07:27:21;;;;;;;0.10;0.10;;;22.80;59.60;;;;;;5064437;28;20049;-27
2022/07/06 07:29:46;;;;;;;0.30;0.25;;;22.70;59.70;;;;;;5050433;28;20401;-25
2022/07/06 07:32:12;;;;;;;0.15;0.15;;;22.70;59.80;;;;;;5063630;28;20059;-29
2022/07/06 07:34:38;;;;;;;0.20;0.10;;;22.70;59.90;;;;;;5052184;28;20463;-25
2022/07/06 07:37:03;;;;;;;0.10;0.10;;;22.70;59.80;;;;;;5054884;28;20052;-30
2022/07/06 07:39:29;;;;;;;0.20;0.10;;;22.70;59.80;;;;;;5062207;28;20040;-28
2022/07/06 07:41:54;;;;;;;0.20;0.20;;;22.70;59.70;;;;;;5066096;28;20041;-26
2022/07/06 07:44:20;;;;;;;0.10;0.10;;;22.70;59.70;;;;;;5064107;28;20524;-29
2022/07/06 07:46:45;;;;;;;0.10;0.10;;;22.70;59.80;;;;;;5067727;28;20048;-33
2022/07/06 07:49:11;;;;;;;0.10;0.10;;;22.70;59.80;;;;;;5067405;28;20032;-28
2022/07/06 07:51:36;;;;;;;0.10;0.10;;;22.70;59.70;;;;;;5067493;28;20130;-28
2022/07/06 07:54:02;;;;;;;0.30;0.30;;;22.70;59.80;;;;;;5066151;28;20043;-26
2022/07/06 07:56:28;;;;;;;0.20;0.10;;;22.70;59.70;;;;;;5064584;28;20067;-26
2022/07/06 07:58:53;;;;;;;0.10;0.10;;;22.70;59.80;;;;;;5065214;28;20040;-27
2022/07/06 08:01:19;;;;;;;0.20;0.20;;;22.70;59.80;;;;;;5065065;28;20072;-28
2022/07/06 08:03:44;;;;;;;0.10;0.10;;;22.70;59.90;;;;;;5065700;28;20052;-25
2022/07/06 08:06:10;;;;;;;0.10;0.10;;;22.70;59.90;;;;;;5067196;28;20051;-27
2022/07/06 08:08:36;;;;;;;0.10;0.10;;;22.70;59.80;;;;;;5065005;28;20477;-25
2022/07/06 08:11:02;;;;;;;0.10;0.10;;;22.70;59.90;;;;;;5060775;28;20055;-26
2022/07/06 08:13:27;;;;;;;0.10;0.10;;;22.70;59.90;;;;;;5054926;28;20044;-26
2022/07/06 08:15:53;;;;;;;0.68;0.10;;;22.70;59.90;;;;;;5051775;28;20813;-24
2022/07/06 08:18:18;;;;;;;0.00;0.00;;;22.70;59.80;;;;;;5041438;28;20442;-27
2022/07/06 08:20:44;;;;;;;1.42;0.17;;;22.70;59.90;;;;;;5063426;28;20524;-32
2022/07/06 08:23:09;;;;;;;0.10;0.10;;;22.70;59.80;;;;;;5049613;28;20128;-26
2022/07/06 08:25:35;;;;;;;0.20;0.10;;;22.70;59.70;;;;;;5041885;28;20041;-26
2022/07/06 08:28:01;;;;;;;0.32;0.20;;;22.70;59.70;;;;;;5055212;28;20510;-24
2022/07/06 08:30:26;;;;;;;0.25;0.10;;;22.70;59.70;;;;;;5054404;28;20041;-27
2022/07/06 08:32:52;;;;;;;0.20;0.20;;;22.70;59.70;;;;;;5063960;28;20037;-31
2022/07/06 08:35:18;;;;;;;0.22;0.10;;;22.70;59.60;;;;;;5050795;28;20119;-26
2022/07/06 08:37:43;;;;;;;0.20;0.17;;;22.70;59.70;;;;;;5036544;28;20052;-26
2022/07/06 08:40:10;;;;;;;0.20;0.20;;;22.70;59.60;;;;;;5057538;28;20036;-28
2022/07/06 08:42:35;;;;;;;0.10;0.10;;;22.70;59.60;;;;;;5047664;28;20041;-26
2022/07/06 08:45:02;;;;;;;0.20;0.20;;;22.80;59.50;;;;;;5040603;28;20068;-27
2022/07/06 08:47:28;;;;;;;0.20;0.20;;;22.80;59.50;;;;;;5039672;28;20049;-26
2022/07/06 08:49:54;;;;;;;0.20;0.20;;;22.80;59.50;;;;;;5040093;28;20064;-27
2022/07/06 08:52:21;;;;;;;0.20;0.17;;;22.70;59.50;;;;;;5040130;28;20033;-27
2022/07/06 08:54:47;;;;;;;0.20;0.10;;;22.80;59.40;;;;;;5065628;28;20082;-27
2022/07/06 08:57:12;;;;;;;0.20;0.20;;;22.80;59.50;;;;;;5064671;28;20037;-26
2022/07/06 08:59:38;;;;;;;0.20;0.20;;;22.80;59.30;;;;;;5050221;28;20045;-27
2022/07/06 09:02:04;;;;;;;0.25;0.15;;;22.80;59.20;;;;;;5058331;28;20094;-26
2022/07/06 09:04:30;;;;;;;0.38;0.30;;;22.80;59.20;;;;;;5040240;28;20041;-26
2022/07/06 09:06:55;;;;;;;0.30;0.20;;;22.80;59.10;;;;;;5035442;28;20033;-27
2022/07/06 09:09:22;;;;;;;0.10;0.10;;;22.80;59.70;;;;;;5039348;28;20142;-26
2022/07/06 09:11:48;;;;;;;0.10;0.10;;;22.90;59.10;;;;;;5038894;28;20049;-27
2022/07/06 09:14:13;;;;;;;0.10;0.10;;;22.90;59.00;;;;;;5038910;28;20037;-27
2022/07/06 09:16:39;;;;;;;0.20;0.10;;;22.90;58.90;;;;;;5063881;28;20041;-26
2022/07/06 09:19:08;;;;;;;0.15;0.10;;;22.90;59.00;;;;;;5064466;28;20043;-26
2022/07/06 09:21:36;;;;;;;0.15;0.15;;;22.90;58.80;;;;;;5061626;28;20432;-27
2022/07/06 09:24:05;;;;;;;0.20;0.20;;;22.90;58.80;;;;;;5052058;28;20048;-27
2022/07/06 09:26:31;;;;;;;0.10;0.10;;;23.00;58.80;;;;;;5062938;28;20577;-26
2022/07/06 09:28:57;;;;;;;0.20;0.20;;;23.00;58.70;;;;;;5054968;28;20143;-26
2022/07/06 09:31:22;;;;;;;0.13;0.13;;;23.00;58.70;;;;;;5055974;28;20524;-26
2022/07/06 09:33:59;;;;;;;0.20;0.20;;;23.00;58.70;;;;;;5055765;28;20041;-27
2022/07/06 09:36:40;;;;;;;0.20;0.20;;;23.00;58.80;;;;;;5046367;28;20257;-24
2022/07/06 09:39:18;;;;;;;0.20;0.20;;;23.10;58.80;;;;;;5049576;28;20109;-26
2022/07/06 09:41:45;;;;;;;0.17;0.10;;;23.10;58.60;;;;;;5055924;28;20044;-27
2022/07/06 09:44:11;;;;;;;0.10;0.10;;;23.00;58.60;;;;;;5052407;28;20041;-26
2022/07/06 09:46:41;;;;;;;0.40;0.30;;;23.00;58.70;;;;;;5058417;28;20508;-26
2022/07/06 09:49:07;;;;;;;0.40;0.20;;;23.00;58.80;;;;;;5049445;28;20083;-26
2022/07/06 09:51:36;;;;;;;0.20;0.20;;;23.00;58.80;;;;;;5037999;28;20493;-26
2022/07/06 09:54:08;;;;;;;0.10;0.10;;;23.00;58.80;;;;;;5040332;28;20072;-27
2022/07/06 09:56:37;;;;;;;0.13;0.13;;;23.00;58.80;;;;;;5037509;28;20065;-26
2022/07/06 09:59:13;;;;;;;0.40;0.20;;;23.00;58.80;;;;;;5040842;28;20056;-27
2022/07/06 10:01:39;;;;;;;0.10;0.10;;;23.00;58.80;;;;;;5062424;28;20101;-27
2022/07/06 10:04:08;;;;;;;0.10;0.10;;;23.00;58.80;;;;;;5055663;28;20436;-27
2022/07/06 10:06:34;;;;;;;0.30;0.13;;;23.00;58.80;;;;;;5066749;28;20469;-26
2022/07/06 10:09:00;;;;;;;0.10;0.10;;;23.00;59.40;;;;;;5069507;28;20049;-26
2022/07/06 10:11:27;;;;;;;0.20;0.20;;;23.00;58.80;;;;;;5068553;28;20063;-28
2022/07/06 10:13:55;;;;;;;0.30;0.20;;;23.00;58.80;;;;;;5062159;28;20117;-27
2022/07/06 10:16:24;;;;;;;0.13;0.13;;;23.00;58.70;;;;;;4680836;28;10000199;-28
2022/07/06 10:18:53;;;;;;;0.10;0.10;;;23.10;58.80;;;;;;5032319;28;20056;-29
2022/07/06 10:21:19;;;;;;;0.35;0.20;;;23.10;58.50;;;;;;5051556;28;20040;-28
2022/07/06 10:23:45;;;;;;;0.20;0.20;;;23.00;58.60;;;;;;5058370;28;20063;-27
2022/07/06 10:26:11;;;;;;;0.30;0.30;;;23.00;58.70;;;;;;5059821;28;20132;-29
2022/07/06 10:28:36;;;;;;;0.10;0.10;;;23.00;58.70;;;;;;5057464;28;20048;-27
2022/07/06 10:31:02;;;;;;;0.20;0.20;;;23.00;58.70;;;;;;5040562;28;20502;-29
2022/07/06 10:33:27;;;;;;;0.10;0.10;;;23.10;58.70;;;;;;5054605;28;20117;-28
2022/07/06 10:35:55;;;;;;;0.13;0.10;;;23.00;58.60;;;;;;5086399;28;20086;-28
2022/07/06 10:38:20;;;;;;;0.17;0.17;;;23.10;58.70;;;;;;5040459;28;20051;-28
2022/07/06 10:41:06;;;;;;;0.13;0.13;;;23.00;58.70;;;;;;5040601;28;20044;-29
2022/07/06 10:43:33;;;;;;;0.20;0.20;;;23.00;58.70;;;;;;5047514;28;20229;-28
2022/07/06 10:45:59;;;;;;;0.30;0.10;;;23.10;58.80;;;;;;4693427;28;9999856;-28
2022/07/06 10:48:24;;;;;;;0.15;0.15;;;23.10;58.80;;;;;;5048161;28;20056;-28
2022/07/06 10:50:52;;;;;;;0.10;0.10;;;23.00;58.80;;;;;;5050890;28;20037;-28
2022/07/06 10:53:27;;;;;;;0.10;0.10;;;23.10;58.80;;;;;;5034839;28;20048;-26
2022/07/06 10:55:54;;;;;;;0.32;0.20;;;23.00;58.90;;;;;;5051034;28;20052;-27
2022/07/06 10:58:45;;;;;;;0.28;0.28;;;23.10;58.90;;;;;;5061350;28;20120;-27
2022/07/06 11:01:11;;;;;;;0.17;0.17;;;23.00;59.00;;;;;;5045463;28;20037;-27
2022/07/06 11:03:41;;;;;;;0.10;0.10;;;23.00;59.00;;;;;;5049724;28;20540;-27
2022/07/06 11:06:12;;;;;;;0.25;0.20;;;23.00;58.90;;;;;;5055303;28;20086;-27
2022/07/06 11:08:59;;;;;;;0.20;0.20;;;23.00;59.10;;;;;;5053462;28;20580;-27
2022/07/06 11:11:31;;;;;;;0.20;0.20;;;23.00;59.20;;;;;;5039764;28;20065;-27
2022/07/06 11:14:10;;;;;;;0.20;0.20;;;23.00;59.20;;;;;;5043121;28;20047;-27
2022/07/06 11:17:00;;;;;;;0.10;0.10;;;23.00;59.30;;;;;;5043355;28;20122;-27
2022/07/06 11:19:26;;;;;;;0.17;0.17;;;23.00;59.30;;;;;;5045729;28;20558;-27
2022/07/06 11:22:05;;;;;;;1.00;0.20;;;23.00;59.30;;;;;;5039547;28;20042;-27
2022/07/06 11:24:31;;;;;;;1.77;0.20;;;23.00;59.30;;;;;;5041169;28;20145;-27
2022/07/06 11:26:57;;;;;;;1.15;0.30;;;23.00;59.30;;;;;;5047275;28;20051;-27
2022/07/06 11:29:24;;;;;;;0.47;0.20;;;23.10;59.40;;;;;;5052588;28;20053;-27
2022/07/06 11:31:55;;;;;;;0.28;0.28;;;23.10;59.40;;;;;;5046660;28;20132;-27
2022/07/06 11:34:29;;;;;;;0.40;0.17;;;23.10;59.40;;;;;;5051592;28;20517;-27
2022/07/06 11:36:59;;;;;;;0.22;0.20;;;23.10;59.40;;;;;;5041890;28;20056;-27
2022/07/06 11:39:32;;;;;;;0.55;0.20;;;23.20;59.70;;;;;;5054579;28;20445;-27
2022/07/06 11:41:58;;;;;;;0.60;0.60;;;23.20;59.10;;;;;;4706216;28;10000275;-27
2022/07/06 11:44:24;;;;;;;0.17;0.17;;;23.20;59.20;;;;;;4696702;28;10000197;-27
2022/07/06 11:46:50;;;;;;;0.63;0.20;;;23.20;59.00;;;;;;5057524;28;20134;-27
2022/07/06 11:49:16;;;;;;;0.52;0.30;;;23.20;59.20;;;;;;5056347;28;20141;-28
2022/07/06 11:51:41;;;;;;;2.33;0.22;;;23.20;59.30;;;;;;5062654;28;20044;-26
2022/07/06 11:54:17;;;;;;;0.95;0.30;;;23.20;59.60;;;;;;5060877;28;20060;-28
2022/07/06 11:56:51;;;;;;;0.32;0.25;;;23.20;59.40;;;;;;5059132;28;20519;-28
2022/07/06 11:59:20;;;;;;;0.20;0.20;;;23.20;59.50;;;;;;5060273;28;20044;-27
2022/07/06 12:01:45;;;;;;;0.30;0.30;;;23.20;59.40;;;;;;5061062;28;20052;-27
2022/07/06 12:04:11;;;;;;;0.38;0.20;;;23.20;59.50;;;;;;5057062;28;20048;-27
2022/07/06 12:06:37;;;;;;;0.57;0.28;;;23.20;60.10;;;;;;5056395;28;20051;-27
2022/07/06 12:09:04;;;;;;;0.52;0.20;;;23.20;59.50;;;;;;5040508;28;20188;-27
2022/07/06 12:11:40;;;;;;;0.40;0.13;;;23.20;59.50;;;;;;5052607;28;20077;-27
2022/07/06 12:14:19;;;;;;;0.20;0.20;;;23.20;59.50;;;;;;5045956;28;20049;-28
2022/07/06 12:16:50;;;;;;;0.20;0.20;;;23.20;59.60;;;;;;5036116;28;20080;-27
2022/07/06 12:19:15;;;;;;;0.32;0.32;;;23.20;59.40;;;;;;5048750;28;20517;-26
2022/07/06 12:21:48;;;;;;;0.22;0.20;;;23.20;59.50;;;;;;5037386;28;20041;-28
2022/07/06 12:24:21;;;;;;;0.30;0.30;;;23.20;59.60;;;;;;5054637;28;20074;-27
2022/07/06 12:26:46;;;;;;;0.38;0.20;;;23.20;59.50;;;;;;5052647;28;20045;-28
2022/07/06 12:29:16;;;;;;;0.40;0.28;;;23.20;59.60;;;;;;5056850;28;20041;-27
2022/07/06 12:31:41;;;;;;;0.40;0.20;;;23.30;59.60;;;;;;5058835;28;20899;-27
2022/07/06 12:34:17;;;;;;;0.20;0.20;;;23.30;59.50;;;;;;5047506;28;21089;-27
2022/07/06 12:36:47;;;;;;;0.10;0.10;;;23.30;59.70;;;;;;5046681;28;20081;-26
2022/07/06 12:39:19;;;;;;;1.85;0.32;;;23.30;59.60;;;;;;5056423;28;20045;-27
2022/07/06 12:42:05;;;;;;;0.40;0.22;;;23.30;59.60;;;;;;5045768;28;20508;-27
2022/07/06 12:44:30;;;;;;;3.67;0.20;;;23.30;59.50;;;;;;5055917;28;20048;-27
2022/07/06 12:47:04;;;;;;;0.20;0.20;;;23.30;59.50;;;;;;5041846;28;20102;-26
2022/07/06 12:49:29;;;;;;;0.20;0.20;;;23.30;59.50;;;;;;5045351;28;20083;-28